sensor_id;sensor_type;location;lat;lon;timestamp;P1;durP1;ratioP1;P2;durP2;ratioP2
74371;SDS011;62885;51.374;6.170;2023-05-20T00:00:44;5.00;;;2.00;;
74371;SDS011;62885;51.374;6.170;2023-05-20T00:03:10;5.38;;;2.28;;
74371;SDS011;62885;51.374;6.170;2023-05-20T00:05:35;5.03;;;1.85;;
74371;SDS011;62885;51.374;6.170;2023-05-20T00:08:01;3.55;;;1.67;;
74371;SDS011;62885;51.374;6.170;2023-05-20T00:10:31;5.63;;;1.92;;
74371;SDS011;62885;51.374;6.170;2023-05-20T00:12:56;5.47;;;1.98;;
74371;SDS011;62885;51.374;6.170;2023-05-20T00:15:21;5.93;;;1.88;;
74371;SDS011;62885;51.374;6.170;2023-05-20T00:17:47;4.75;;;2.03;;
74371;SDS011;62885;51.374;6.170;2023-05-20T00:20:12;5.68;;;1.95;;
74371;SDS011;62885;51.374;6.170;2023-05-20T00:22:37;6.03;;;2.03;;
74371;SDS011;62885;51.374;6.170;2023-05-20T00:25:03;4.97;;;1.67;;
74371;SDS011;62885;51.374;6.170;2023-05-20T00:27:28;4.75;;;2.17;;
74371;SDS011;62885;51.374;6.170;2023-05-20T00:29:54;5.65;;;1.83;;
74371;SDS011;62885;51.374;6.170;2023-05-20T00:32:19;4.32;;;2.08;;
74371;SDS011;62885;51.374;6.170;2023-05-20T00:34:54;4.53;;;2.28;;
74371;SDS011;62885;51.374;6.170;2023-05-20T00:37:21;7.00;;;2.20;;
74371;SDS011;62885;51.374;6.170;2023-05-20T00:39:46;4.05;;;1.95;;
74371;SDS011;62885;51.374;6.170;2023-05-20T00:42:18;5.13;;;1.85;;
74371;SDS011;62885;51.374;6.170;2023-05-20T00:44:47;4.80;;;2.00;;
74371;SDS011;62885;51.374;6.170;2023-05-20T00:47:13;4.93;;;1.85;;
74371;SDS011;62885;51.374;6.170;2023-05-20T00:49:40;5.35;;;1.95;;
74371;SDS011;62885;51.374;6.170;2023-05-20T00:52:06;5.82;;;1.80;;
74371;SDS011;62885;51.374;6.170;2023-05-20T00:54:32;3.58;;;1.92;;
74371;SDS011;62885;51.374;6.170;2023-05-20T00:56:57;5.88;;;2.03;;
74371;SDS011;62885;51.374;6.170;2023-05-20T00:59:23;3.47;;;1.83;;
74371;SDS011;62885;51.374;6.170;2023-05-20T01:01:50;5.53;;;2.10;;
74371;SDS011;62885;51.374;6.170;2023-05-20T01:04:16;4.72;;;2.25;;
74371;SDS011;62885;51.374;6.170;2023-05-20T01:06:42;5.35;;;2.20;;
74371;SDS011;62885;51.374;6.170;2023-05-20T01:09:08;4.15;;;1.70;;
74371;SDS011;62885;51.374;6.170;2023-05-20T01:11:33;4.53;;;1.98;;
74371;SDS011;62885;51.374;6.170;2023-05-20T01:14:08;6.10;;;1.98;;
74371;SDS011;62885;51.374;6.170;2023-05-20T01:16:36;4.60;;;1.80;;
74371;SDS011;62885;51.374;6.170;2023-05-20T01:19:03;4.47;;;1.90;;
74371;SDS011;62885;51.374;6.170;2023-05-20T01:21:37;4.93;;;1.98;;
74371;SDS011;62885;51.374;6.170;2023-05-20T01:24:03;6.28;;;1.98;;
74371;SDS011;62885;51.374;6.170;2023-05-20T01:26:29;2.92;;;1.70;;
74371;SDS011;62885;51.374;6.170;2023-05-20T01:28:55;4.97;;;2.10;;
74371;SDS011;62885;51.374;6.170;2023-05-20T01:31:25;3.13;;;1.42;;
74371;SDS011;62885;51.374;6.170;2023-05-20T01:33:56;2.67;;;1.70;;
74371;SDS011;62885;51.374;6.170;2023-05-20T01:36:22;6.72;;;1.98;;
74371;SDS011;62885;51.374;6.170;2023-05-20T01:38:50;7.05;;;2.35;;
74371;SDS011;62885;51.374;6.170;2023-05-20T01:41:18;5.93;;;1.88;;
74371;SDS011;62885;51.374;6.170;2023-05-20T01:43:44;4.80;;;1.80;;
74371;SDS011;62885;51.374;6.170;2023-05-20T01:46:10;4.95;;;1.70;;
74371;SDS011;62885;51.374;6.170;2023-05-20T01:48:35;5.45;;;1.90;;
74371;SDS011;62885;51.374;6.170;2023-05-20T01:51:02;4.50;;;1.95;;
74371;SDS011;62885;51.374;6.170;2023-05-20T01:53:30;4.13;;;1.98;;
74371;SDS011;62885;51.374;6.170;2023-05-20T01:55:58;6.30;;;2.00;;
74371;SDS011;62885;51.374;6.170;2023-05-20T01:58:23;4.22;;;2.00;;
74371;SDS011;62885;51.374;6.170;2023-05-20T02:00:48;5.38;;;2.28;;
74371;SDS011;62885;51.374;6.170;2023-05-20T02:03:14;4.60;;;2.40;;
74371;SDS011;62885;51.374;6.170;2023-05-20T02:05:39;4.95;;;2.17;;
74371;SDS011;62885;51.374;6.170;2023-05-20T02:08:05;5.25;;;2.15;;
74371;SDS011;62885;51.374;6.170;2023-05-20T02:10:31;6.55;;;1.83;;
74371;SDS011;62885;51.374;6.170;2023-05-20T02:12:56;8.70;;;2.33;;
74371;SDS011;62885;51.374;6.170;2023-05-20T02:15:21;4.38;;;2.20;;
74371;SDS011;62885;51.374;6.170;2023-05-20T02:17:47;6.03;;;2.28;;
74371;SDS011;62885;51.374;6.170;2023-05-20T02:20:13;4.78;;;2.60;;
74371;SDS011;62885;51.374;6.170;2023-05-20T02:22:38;6.05;;;2.17;;
74371;SDS011;62885;51.374;6.170;2023-05-20T02:25:04;5.18;;;2.08;;
74371;SDS011;62885;51.374;6.170;2023-05-20T02:27:29;6.72;;;2.30;;
74371;SDS011;62885;51.374;6.170;2023-05-20T02:29:55;6.93;;;2.50;;
74371;SDS011;62885;51.374;6.170;2023-05-20T02:32:21;5.72;;;2.30;;
74371;SDS011;62885;51.374;6.170;2023-05-20T02:34:51;6.90;;;2.13;;
74371;SDS011;62885;51.374;6.170;2023-05-20T02:37:17;6.45;;;2.95;;
74371;SDS011;62885;51.374;6.170;2023-05-20T02:39:43;6.40;;;2.50;;
74371;SDS011;62885;51.374;6.170;2023-05-20T02:42:08;5.72;;;1.95;;
74371;SDS011;62885;51.374;6.170;2023-05-20T02:44:33;7.80;;;2.40;;
74371;SDS011;62885;51.374;6.170;2023-05-20T02:46:59;6.00;;;2.40;;
74371;SDS011;62885;51.374;6.170;2023-05-20T02:49:25;3.90;;;2.00;;
74371;SDS011;62885;51.374;6.170;2023-05-20T02:51:52;4.30;;;2.00;;
74371;SDS011;62885;51.374;6.170;2023-05-20T02:54:18;5.50;;;1.88;;
74371;SDS011;62885;51.374;6.170;2023-05-20T02:56:43;6.15;;;2.20;;
74371;SDS011;62885;51.374;6.170;2023-05-20T02:59:08;3.67;;;2.03;;
74371;SDS011;62885;51.374;6.170;2023-05-20T03:01:34;3.50;;;1.95;;
74371;SDS011;62885;51.374;6.170;2023-05-20T03:04:00;4.82;;;2.15;;
74371;SDS011;62885;51.374;6.170;2023-05-20T03:06:26;5.13;;;2.63;;
74371;SDS011;62885;51.374;6.170;2023-05-20T03:08:53;7.85;;;2.63;;
74371;SDS011;62885;51.374;6.170;2023-05-20T03:11:19;4.50;;;2.08;;
74371;SDS011;62885;51.374;6.170;2023-05-20T03:13:45;6.72;;;2.63;;
74371;SDS011;62885;51.374;6.170;2023-05-20T03:16:11;6.53;;;2.40;;
74371;SDS011;62885;51.374;6.170;2023-05-20T03:18:37;5.95;;;2.47;;
74371;SDS011;62885;51.374;6.170;2023-05-20T03:21:02;4.30;;;2.22;;
74371;SDS011;62885;51.374;6.170;2023-05-20T03:23:28;6.32;;;2.67;;
74371;SDS011;62885;51.374;6.170;2023-05-20T03:25:53;4.93;;;2.33;;
74371;SDS011;62885;51.374;6.170;2023-05-20T03:28:19;6.65;;;2.30;;
74371;SDS011;62885;51.374;6.170;2023-05-20T03:30:46;5.60;;;2.35;;
74371;SDS011;62885;51.374;6.170;2023-05-20T03:33:12;7.93;;;2.60;;
74371;SDS011;62885;51.374;6.170;2023-05-20T03:35:38;4.38;;;2.10;;
74371;SDS011;62885;51.374;6.170;2023-05-20T03:38:03;5.97;;;2.65;;
74371;SDS011;62885;51.374;6.170;2023-05-20T03:40:29;5.95;;;2.92;;
74371;SDS011;62885;51.374;6.170;2023-05-20T03:42:54;6.55;;;2.50;;
74371;SDS011;62885;51.374;6.170;2023-05-20T03:45:19;5.60;;;2.72;;
74371;SDS011;62885;51.374;6.170;2023-05-20T03:47:45;8.05;;;2.47;;
74371;SDS011;62885;51.374;6.170;2023-05-20T03:50:10;4.93;;;2.45;;
74371;SDS011;62885;51.374;6.170;2023-05-20T03:52:36;7.82;;;3.05;;
74371;SDS011;62885;51.374;6.170;2023-05-20T03:55:01;4.63;;;2.40;;
74371;SDS011;62885;51.374;6.170;2023-05-20T03:57:27;7.72;;;2.50;;
74371;SDS011;62885;51.374;6.170;2023-05-20T03:59:53;5.93;;;2.40;;
74371;SDS011;62885;51.374;6.170;2023-05-20T04:02:18;6.75;;;2.53;;
74371;SDS011;62885;51.374;6.170;2023-05-20T04:04:44;5.25;;;2.63;;
74371;SDS011;62885;51.374;6.170;2023-05-20T04:07:10;5.18;;;2.40;;
74371;SDS011;62885;51.374;6.170;2023-05-20T04:09:36;7.30;;;2.47;;
74371;SDS011;62885;51.374;6.170;2023-05-20T04:12:02;4.53;;;2.10;;
74371;SDS011;62885;51.374;6.170;2023-05-20T04:14:29;6.28;;;2.65;;
74371;SDS011;62885;51.374;6.170;2023-05-20T04:16:58;5.47;;;2.35;;
74371;SDS011;62885;51.374;6.170;2023-05-20T04:19:25;8.68;;;2.70;;
74371;SDS011;62885;51.374;6.170;2023-05-20T04:21:52;7.45;;;2.72;;
74371;SDS011;62885;51.374;6.170;2023-05-20T04:24:17;9.60;;;2.55;;
74371;SDS011;62885;51.374;6.170;2023-05-20T04:26:43;8.18;;;2.67;;
74371;SDS011;62885;51.374;6.170;2023-05-20T04:29:08;5.88;;;2.70;;
74371;SDS011;62885;51.374;6.170;2023-05-20T04:31:33;7.75;;;2.25;;
74371;SDS011;62885;51.374;6.170;2023-05-20T04:33:59;6.10;;;2.75;;
74371;SDS011;62885;51.374;6.170;2023-05-20T04:36:24;5.03;;;2.10;;
74371;SDS011;62885;51.374;6.170;2023-05-20T04:38:55;6.63;;;2.53;;
74371;SDS011;62885;51.374;6.170;2023-05-20T04:41:21;6.50;;;2.35;;
74371;SDS011;62885;51.374;6.170;2023-05-20T04:43:46;5.80;;;2.45;;
74371;SDS011;62885;51.374;6.170;2023-05-20T04:46:13;9.23;;;2.92;;
74371;SDS011;62885;51.374;6.170;2023-05-20T04:48:40;5.88;;;2.45;;
74371;SDS011;62885;51.374;6.170;2023-05-20T04:51:06;7.15;;;2.40;;
74371;SDS011;62885;51.374;6.170;2023-05-20T04:53:32;6.38;;;2.67;;
74371;SDS011;62885;51.374;6.170;2023-05-20T04:55:59;8.20;;;2.67;;
74371;SDS011;62885;51.374;6.170;2023-05-20T04:58:25;5.25;;;2.40;;
74371;SDS011;62885;51.374;6.170;2023-05-20T05:00:51;6.57;;;2.60;;
74371;SDS011;62885;51.374;6.170;2023-05-20T05:03:17;4.72;;;2.35;;
74371;SDS011;62885;51.374;6.170;2023-05-20T05:05:42;8.30;;;2.80;;
74371;SDS011;62885;51.374;6.170;2023-05-20T05:08:08;6.50;;;2.97;;
74371;SDS011;62885;51.374;6.170;2023-05-20T05:10:35;6.90;;;2.60;;
74371;SDS011;62885;51.374;6.170;2023-05-20T05:13:01;7.68;;;2.55;;
74371;SDS011;62885;51.374;6.170;2023-05-20T05:15:27;5.22;;;2.45;;
74371;SDS011;62885;51.374;6.170;2023-05-20T05:17:52;6.28;;;2.53;;
74371;SDS011;62885;51.374;6.170;2023-05-20T05:20:18;6.25;;;2.30;;
74371;SDS011;62885;51.374;6.170;2023-05-20T05:22:44;4.80;;;2.67;;
74371;SDS011;62885;51.374;6.170;2023-05-20T05:25:09;5.40;;;2.58;;
74371;SDS011;62885;51.374;6.170;2023-05-20T05:27:35;5.97;;;2.40;;
74371;SDS011;62885;51.374;6.170;2023-05-20T05:30:01;7.05;;;2.83;;
74371;SDS011;62885;51.374;6.170;2023-05-20T05:32:28;6.35;;;2.50;;
74371;SDS011;62885;51.374;6.170;2023-05-20T05:34:53;6.10;;;2.70;;
74371;SDS011;62885;51.374;6.170;2023-05-20T05:37:19;5.77;;;2.93;;
74371;SDS011;62885;51.374;6.170;2023-05-20T05:39:45;6.28;;;2.22;;
74371;SDS011;62885;51.374;6.170;2023-05-20T05:42:10;5.38;;;2.80;;
74371;SDS011;62885;51.374;6.170;2023-05-20T05:44:35;8.13;;;2.75;;
74371;SDS011;62885;51.374;6.170;2023-05-20T05:47:01;9.50;;;2.95;;
74371;SDS011;62885;51.374;6.170;2023-05-20T05:49:26;6.93;;;2.50;;
74371;SDS011;62885;51.374;6.170;2023-05-20T05:51:52;9.93;;;2.85;;
74371;SDS011;62885;51.374;6.170;2023-05-20T05:54:17;4.43;;;2.35;;
74371;SDS011;62885;51.374;6.170;2023-05-20T05:56:44;5.05;;;2.67;;
74371;SDS011;62885;51.374;6.170;2023-05-20T05:59:09;5.18;;;2.35;;
74371;SDS011;62885;51.374;6.170;2023-05-20T06:01:35;5.68;;;3.17;;
74371;SDS011;62885;51.374;6.170;2023-05-20T06:04:01;6.13;;;2.53;;
74371;SDS011;62885;51.374;6.170;2023-05-20T06:06:26;5.75;;;2.38;;
74371;SDS011;62885;51.374;6.170;2023-05-20T06:08:52;5.72;;;2.22;;
74371;SDS011;62885;51.374;6.170;2023-05-20T06:11:17;5.43;;;2.47;;
74371;SDS011;62885;51.374;6.170;2023-05-20T06:13:43;7.00;;;2.67;;
74371;SDS011;62885;51.374;6.170;2023-05-20T06:16:08;5.60;;;2.65;;
74371;SDS011;62885;51.374;6.170;2023-05-20T06:18:33;5.57;;;2.42;;
74371;SDS011;62885;51.374;6.170;2023-05-20T06:20:59;6.88;;;2.90;;
74371;SDS011;62885;51.374;6.170;2023-05-20T06:23:24;11.13;;;2.88;;
74371;SDS011;62885;51.374;6.170;2023-05-20T06:25:50;5.10;;;2.35;;
74371;SDS011;62885;51.374;6.170;2023-05-20T06:28:16;7.82;;;2.97;;
74371;SDS011;62885;51.374;6.170;2023-05-20T06:30:41;5.68;;;2.55;;
74371;SDS011;62885;51.374;6.170;2023-05-20T06:33:07;4.80;;;2.45;;
74371;SDS011;62885;51.374;6.170;2023-05-20T06:35:32;7.05;;;2.60;;
74371;SDS011;62885;51.374;6.170;2023-05-20T06:38:01;4.25;;;2.15;;
74371;SDS011;62885;51.374;6.170;2023-05-20T06:40:26;4.88;;;2.38;;
74371;SDS011;62885;51.374;6.170;2023-05-20T06:42:52;5.68;;;2.70;;
74371;SDS011;62885;51.374;6.170;2023-05-20T06:45:18;5.28;;;2.50;;
74371;SDS011;62885;51.374;6.170;2023-05-20T06:47:43;6.13;;;2.75;;
74371;SDS011;62885;51.374;6.170;2023-05-20T06:50:09;6.68;;;2.67;;
74371;SDS011;62885;51.374;6.170;2023-05-20T06:52:35;6.20;;;2.50;;
74371;SDS011;62885;51.374;6.170;2023-05-20T06:55:00;4.70;;;2.47;;
74371;SDS011;62885;51.374;6.170;2023-05-20T06:57:26;6.60;;;2.63;;
74371;SDS011;62885;51.374;6.170;2023-05-20T06:59:52;7.43;;;2.47;;
74371;SDS011;62885;51.374;6.170;2023-05-20T07:02:17;7.40;;;2.88;;
74371;SDS011;62885;51.374;6.170;2023-05-20T07:04:42;6.93;;;2.58;;
74371;SDS011;62885;51.374;6.170;2023-05-20T07:07:08;6.72;;;2.90;;
74371;SDS011;62885;51.374;6.170;2023-05-20T07:09:33;5.40;;;2.60;;
74371;SDS011;62885;51.374;6.170;2023-05-20T07:11:59;6.78;;;2.78;;
74371;SDS011;62885;51.374;6.170;2023-05-20T07:14:24;6.70;;;2.90;;
74371;SDS011;62885;51.374;6.170;2023-05-20T07:16:50;5.35;;;2.75;;
74371;SDS011;62885;51.374;6.170;2023-05-20T07:19:15;4.70;;;2.83;;
74371;SDS011;62885;51.374;6.170;2023-05-20T07:21:41;6.57;;;2.95;;
74371;SDS011;62885;51.374;6.170;2023-05-20T07:24:06;7.80;;;2.38;;
74371;SDS011;62885;51.374;6.170;2023-05-20T07:26:31;6.07;;;2.42;;
74371;SDS011;62885;51.374;6.170;2023-05-20T07:29:01;5.93;;;2.75;;
74371;SDS011;62885;51.374;6.170;2023-05-20T07:31:27;6.78;;;2.72;;
74371;SDS011;62885;51.374;6.170;2023-05-20T07:33:53;6.72;;;2.70;;
74371;SDS011;62885;51.374;6.170;2023-05-20T07:36:18;5.68;;;2.47;;
74371;SDS011;62885;51.374;6.170;2023-05-20T07:38:43;7.38;;;3.60;;
74371;SDS011;62885;51.374;6.170;2023-05-20T07:41:09;6.70;;;3.33;;
74371;SDS011;62885;51.374;6.170;2023-05-20T07:43:35;5.28;;;2.53;;
74371;SDS011;62885;51.374;6.170;2023-05-20T07:46:01;5.70;;;2.40;;
74371;SDS011;62885;51.374;6.170;2023-05-20T07:48:26;5.40;;;2.72;;
74371;SDS011;62885;51.374;6.170;2023-05-20T07:50:51;3.83;;;2.20;;
74371;SDS011;62885;51.374;6.170;2023-05-20T07:53:17;4.75;;;2.58;;
74371;SDS011;62885;51.374;6.170;2023-05-20T07:55:42;5.22;;;2.85;;
74371;SDS011;62885;51.374;6.170;2023-05-20T07:58:07;6.47;;;2.35;;
74371;SDS011;62885;51.374;6.170;2023-05-20T08:00:33;5.80;;;3.13;;
74371;SDS011;62885;51.374;6.170;2023-05-20T08:02:58;6.90;;;2.20;;
74371;SDS011;62885;51.374;6.170;2023-05-20T08:05:24;6.85;;;2.60;;
74371;SDS011;62885;51.374;6.170;2023-05-20T08:07:49;4.85;;;2.55;;
74371;SDS011;62885;51.374;6.170;2023-05-20T08:10:14;4.43;;;2.03;;
74371;SDS011;62885;51.374;6.170;2023-05-20T08:12:40;6.88;;;2.53;;
74371;SDS011;62885;51.374;6.170;2023-05-20T08:15:05;5.32;;;2.90;;
74371;SDS011;62885;51.374;6.170;2023-05-20T08:17:31;4.63;;;2.65;;
74371;SDS011;62885;51.374;6.170;2023-05-20T08:19:56;4.30;;;2.40;;
74371;SDS011;62885;51.374;6.170;2023-05-20T08:22:22;6.55;;;2.85;;
74371;SDS011;62885;51.374;6.170;2023-05-20T08:24:47;7.20;;;2.40;;
74371;SDS011;62885;51.374;6.170;2023-05-20T08:27:12;6.75;;;2.25;;
74371;SDS011;62885;51.374;6.170;2023-05-20T08:29:38;5.25;;;2.42;;
74371;SDS011;62885;51.374;6.170;2023-05-20T08:32:03;3.45;;;1.85;;
74371;SDS011;62885;51.374;6.170;2023-05-20T08:34:29;5.80;;;2.38;;
74371;SDS011;62885;51.374;6.170;2023-05-20T08:36:54;4.57;;;2.58;;
74371;SDS011;62885;51.374;6.170;2023-05-20T08:39:21;5.80;;;2.65;;
74371;SDS011;62885;51.374;6.170;2023-05-20T08:41:47;5.53;;;2.25;;
74371;SDS011;62885;51.374;6.170;2023-05-20T08:44:13;6.32;;;2.20;;
74371;SDS011;62885;51.374;6.170;2023-05-20T08:46:38;6.75;;;2.53;;
74371;SDS011;62885;51.374;6.170;2023-05-20T08:49:05;6.70;;;2.38;;
74371;SDS011;62885;51.374;6.170;2023-05-20T08:51:31;6.32;;;2.50;;
74371;SDS011;62885;51.374;6.170;2023-05-20T08:54:01;4.55;;;2.70;;
74371;SDS011;62885;51.374;6.170;2023-05-20T08:56:26;6.47;;;2.47;;
74371;SDS011;62885;51.374;6.170;2023-05-20T08:58:52;4.85;;;2.20;;
74371;SDS011;62885;51.374;6.170;2023-05-20T09:01:18;5.38;;;2.42;;
74371;SDS011;62885;51.374;6.170;2023-05-20T09:03:47;4.55;;;2.35;;
74371;SDS011;62885;51.374;6.170;2023-05-20T09:06:15;3.67;;;1.80;;
74371;SDS011;62885;51.374;6.170;2023-05-20T09:08:41;6.03;;;2.22;;
74371;SDS011;62885;51.374;6.170;2023-05-20T09:11:08;4.70;;;2.47;;
74371;SDS011;62885;51.374;6.170;2023-05-20T09:13:34;6.75;;;2.58;;
74371;SDS011;62885;51.374;6.170;2023-05-20T09:15:59;6.75;;;2.60;;
74371;SDS011;62885;51.374;6.170;2023-05-20T09:18:26;6.05;;;2.25;;
74371;SDS011;62885;51.374;6.170;2023-05-20T09:20:51;4.65;;;2.33;;
74371;SDS011;62885;51.374;6.170;2023-05-20T09:23:18;5.90;;;2.30;;
74371;SDS011;62885;51.374;6.170;2023-05-20T09:25:47;7.93;;;2.47;;
74371;SDS011;62885;51.374;6.170;2023-05-20T09:28:14;4.82;;;2.33;;
74371;SDS011;62885;51.374;6.170;2023-05-20T09:30:39;6.25;;;2.80;;
74371;SDS011;62885;51.374;6.170;2023-05-20T09:33:05;5.15;;;2.42;;
74371;SDS011;62885;51.374;6.170;2023-05-20T09:35:33;7.78;;;3.20;;
74371;SDS011;62885;51.374;6.170;2023-05-20T09:38:01;4.88;;;2.45;;
74371;SDS011;62885;51.374;6.170;2023-05-20T09:40:29;6.57;;;2.97;;
74371;SDS011;62885;51.374;6.170;2023-05-20T09:42:59;7.10;;;3.28;;
74371;SDS011;62885;51.374;6.170;2023-05-20T09:45:27;6.18;;;2.78;;
74371;SDS011;62885;51.374;6.170;2023-05-20T09:47:53;7.40;;;2.90;;
74371;SDS011;62885;51.374;6.170;2023-05-20T09:50:20;5.63;;;2.85;;
74371;SDS011;62885;51.374;6.170;2023-05-20T09:52:52;5.72;;;2.92;;
74371;SDS011;62885;51.374;6.170;2023-05-20T09:55:19;9.73;;;3.28;;
74371;SDS011;62885;51.374;6.170;2023-05-20T09:57:46;5.50;;;2.85;;
74371;SDS011;62885;51.374;6.170;2023-05-20T10:00:12;6.80;;;3.20;;
74371;SDS011;62885;51.374;6.170;2023-05-20T10:02:50;7.55;;;3.33;;
74371;SDS011;62885;51.374;6.170;2023-05-20T10:05:34;6.38;;;3.20;;
74371;SDS011;62885;51.374;6.170;2023-05-20T10:11:00;7.70;;;3.50;;
74371;SDS011;62885;51.374;6.170;2023-05-20T10:19:34;6.97;;;3.80;;
74371;SDS011;62885;51.374;6.170;2023-05-20T10:26:57;7.72;;;3.38;;
74371;SDS011;62885;51.374;6.170;2023-05-20T10:29:24;8.00;;;3.25;;
74371;SDS011;62885;51.374;6.170;2023-05-20T10:31:51;8.77;;;3.83;;
74371;SDS011;62885;51.374;6.170;2023-05-20T10:34:17;6.32;;;3.58;;
74371;SDS011;62885;51.374;6.170;2023-05-20T10:37:05;6.68;;;3.67;;
74371;SDS011;62885;51.374;6.170;2023-05-20T10:39:30;6.38;;;3.33;;
74371;SDS011;62885;51.374;6.170;2023-05-20T10:42:08;7.00;;;3.30;;
74371;SDS011;62885;51.374;6.170;2023-05-20T10:47:07;8.38;;;3.63;;
74371;SDS011;62885;51.374;6.170;2023-05-20T10:49:33;6.65;;;3.55;;
74371;SDS011;62885;51.374;6.170;2023-05-20T10:52:02;6.40;;;3.47;;
74371;SDS011;62885;51.374;6.170;2023-05-20T10:54:28;5.97;;;3.25;;
74371;SDS011;62885;51.374;6.170;2023-05-20T10:56:59;6.43;;;3.53;;
74371;SDS011;62885;51.374;6.170;2023-05-20T10:59:24;7.00;;;3.78;;
74371;SDS011;62885;51.374;6.170;2023-05-20T11:01:50;7.53;;;3.83;;
74371;SDS011;62885;51.374;6.170;2023-05-20T11:04:15;7.30;;;4.00;;
74371;SDS011;62885;51.374;6.170;2023-05-20T11:06:49;6.22;;;3.38;;
74371;SDS011;62885;51.374;6.170;2023-05-20T11:09:15;8.07;;;3.97;;
74371;SDS011;62885;51.374;6.170;2023-05-20T11:11:41;9.43;;;3.30;;
74371;SDS011;62885;51.374;6.170;2023-05-20T11:14:06;6.15;;;3.33;;
74371;SDS011;62885;51.374;6.170;2023-05-20T11:16:37;10.05;;;3.70;;
74371;SDS011;62885;51.374;6.170;2023-05-20T11:19:03;9.60;;;4.15;;
74371;SDS011;62885;51.374;6.170;2023-05-20T11:21:28;6.90;;;4.30;;
74371;SDS011;62885;51.374;6.170;2023-05-20T11:23:53;7.93;;;3.33;;
74371;SDS011;62885;51.374;6.170;2023-05-20T11:26:19;7.68;;;3.95;;
74371;SDS011;62885;51.374;6.170;2023-05-20T11:28:45;7.13;;;3.75;;
74371;SDS011;62885;51.374;6.170;2023-05-20T11:31:11;7.38;;;3.72;;
74371;SDS011;62885;51.374;6.170;2023-05-20T11:33:40;8.32;;;4.18;;
74371;SDS011;62885;51.374;6.170;2023-05-20T11:36:06;8.07;;;4.70;;
74371;SDS011;62885;51.374;6.170;2023-05-20T11:38:33;6.85;;;4.03;;
74371;SDS011;62885;51.374;6.170;2023-05-20T11:40:59;9.15;;;4.13;;
74371;SDS011;62885;51.374;6.170;2023-05-20T11:43:24;8.48;;;3.90;;
74371;SDS011;62885;51.374;6.170;2023-05-20T11:45:54;8.25;;;3.75;;
74371;SDS011;62885;51.374;6.170;2023-05-20T11:48:23;8.60;;;3.92;;
74371;SDS011;62885;51.374;6.170;2023-05-20T11:50:49;7.30;;;3.45;;
74371;SDS011;62885;51.374;6.170;2023-05-20T11:53:19;7.57;;;3.78;;
74371;SDS011;62885;51.374;6.170;2023-05-20T11:58:11;7.75;;;3.80;;
74371;SDS011;62885;51.374;6.170;2023-05-20T12:00:40;6.43;;;3.47;;
74371;SDS011;62885;51.374;6.170;2023-05-20T12:03:05;7.18;;;3.55;;
74371;SDS011;62885;51.374;6.170;2023-05-20T12:05:31;14.50;;;3.67;;
74371;SDS011;62885;51.374;6.170;2023-05-20T12:07:56;7.25;;;4.10;;
74371;SDS011;62885;51.374;6.170;2023-05-20T12:10:21;6.45;;;3.72;;
74371;SDS011;62885;51.374;6.170;2023-05-20T12:12:47;7.22;;;3.70;;
74371;SDS011;62885;51.374;6.170;2023-05-20T12:15:12;8.55;;;3.83;;
74371;SDS011;62885;51.374;6.170;2023-05-20T12:17:47;6.78;;;3.58;;
74371;SDS011;62885;51.374;6.170;2023-05-20T12:20:15;6.95;;;3.78;;
74371;SDS011;62885;51.374;6.170;2023-05-20T12:22:42;6.43;;;3.45;;
74371;SDS011;62885;51.374;6.170;2023-05-20T12:25:09;6.60;;;3.53;;
74371;SDS011;62885;51.374;6.170;2023-05-20T12:27:36;9.52;;;3.70;;
74371;SDS011;62885;51.374;6.170;2023-05-20T12:30:01;6.70;;;3.83;;
74371;SDS011;62885;51.374;6.170;2023-05-20T12:32:27;7.00;;;3.88;;
74371;SDS011;62885;51.374;6.170;2023-05-20T12:34:52;6.80;;;3.38;;
74371;SDS011;62885;51.374;6.170;2023-05-20T12:37:17;7.65;;;3.17;;
74371;SDS011;62885;51.374;6.170;2023-05-20T12:39:43;9.52;;;3.38;;
74371;SDS011;62885;51.374;6.170;2023-05-20T12:42:08;6.90;;;3.97;;
74371;SDS011;62885;51.374;6.170;2023-05-20T12:44:33;7.78;;;3.55;;
74371;SDS011;62885;51.374;6.170;2023-05-20T12:46:59;7.68;;;3.83;;
74371;SDS011;62885;51.374;6.170;2023-05-20T12:49:24;8.18;;;4.18;;
74371;SDS011;62885;51.374;6.170;2023-05-20T12:51:50;7.53;;;4.18;;
74371;SDS011;62885;51.374;6.170;2023-05-20T12:54:16;11.70;;;3.90;;
74371;SDS011;62885;51.374;6.170;2023-05-20T12:56:41;6.20;;;3.13;;
74371;SDS011;62885;51.374;6.170;2023-05-20T12:59:11;8.00;;;3.88;;
74371;SDS011;62885;51.374;6.170;2023-05-20T13:01:36;6.40;;;3.38;;
74371;SDS011;62885;51.374;6.170;2023-05-20T13:04:02;9.23;;;4.03;;
74371;SDS011;62885;51.374;6.170;2023-05-20T13:06:28;7.43;;;3.78;;
74371;SDS011;62885;51.374;6.170;2023-05-20T13:08:55;7.25;;;3.92;;
74371;SDS011;62885;51.374;6.170;2023-05-20T13:11:20;6.50;;;3.45;;
74371;SDS011;62885;51.374;6.170;2023-05-20T13:13:46;7.97;;;4.28;;
74371;SDS011;62885;51.374;6.170;2023-05-20T13:16:11;6.18;;;3.97;;
74371;SDS011;62885;51.374;6.170;2023-05-20T13:18:36;8.80;;;4.03;;
74371;SDS011;62885;51.374;6.170;2023-05-20T13:21:02;8.25;;;4.05;;
74371;SDS011;62885;51.374;6.170;2023-05-20T13:23:27;6.25;;;3.67;;
74371;SDS011;62885;51.374;6.170;2023-05-20T13:25:53;8.55;;;4.28;;
74371;SDS011;62885;51.374;6.170;2023-05-20T13:28:18;6.60;;;3.20;;
74371;SDS011;62885;51.374;6.170;2023-05-20T13:30:44;6.00;;;3.72;;
74371;SDS011;62885;51.374;6.170;2023-05-20T13:33:10;5.60;;;3.35;;
74371;SDS011;62885;51.374;6.170;2023-05-20T13:35:36;5.97;;;3.83;;
74371;SDS011;62885;51.374;6.170;2023-05-20T13:38:01;6.95;;;3.80;;
74371;SDS011;62885;51.374;6.170;2023-05-20T13:40:26;7.15;;;4.50;;
74371;SDS011;62885;51.374;6.170;2023-05-20T13:42:52;6.95;;;3.85;;
74371;SDS011;62885;51.374;6.170;2023-05-20T13:45:18;6.28;;;3.60;;
74371;SDS011;62885;51.374;6.170;2023-05-20T13:47:44;6.30;;;3.58;;
74371;SDS011;62885;51.374;6.170;2023-05-20T13:50:09;6.70;;;3.92;;
74371;SDS011;62885;51.374;6.170;2023-05-20T13:52:35;8.00;;;3.75;;
74371;SDS011;62885;51.374;6.170;2023-05-20T13:55:00;7.38;;;4.20;;
74371;SDS011;62885;51.374;6.170;2023-05-20T13:57:26;7.53;;;4.82;;
74371;SDS011;62885;51.374;6.170;2023-05-20T13:59:51;6.63;;;4.10;;
74371;SDS011;62885;51.374;6.170;2023-05-20T14:02:17;8.77;;;4.00;;
74371;SDS011;62885;51.374;6.170;2023-05-20T14:04:42;5.40;;;3.55;;
74371;SDS011;62885;51.374;6.170;2023-05-20T14:07:08;6.05;;;3.53;;
74371;SDS011;62885;51.374;6.170;2023-05-20T14:09:34;4.68;;;3.13;;
74371;SDS011;62885;51.374;6.170;2023-05-20T14:12:00;7.20;;;3.83;;
74371;SDS011;62885;51.374;6.170;2023-05-20T14:14:25;6.05;;;3.55;;
74371;SDS011;62885;51.374;6.170;2023-05-20T14:16:51;4.88;;;3.17;;
74371;SDS011;62885;51.374;6.170;2023-05-20T14:19:16;7.22;;;3.72;;
74371;SDS011;62885;51.374;6.170;2023-05-20T14:21:42;4.43;;;3.38;;
74371;SDS011;62885;51.374;6.170;2023-05-20T14:24:07;6.78;;;4.00;;
74371;SDS011;62885;51.374;6.170;2023-05-20T14:26:32;7.90;;;3.80;;
74371;SDS011;62885;51.374;6.170;2023-05-20T14:28:58;6.25;;;3.78;;
74371;SDS011;62885;51.374;6.170;2023-05-20T14:31:25;7.43;;;3.70;;
74371;SDS011;62885;51.374;6.170;2023-05-20T14:33:50;6.03;;;3.35;;
74371;SDS011;62885;51.374;6.170;2023-05-20T14:36:16;6.43;;;2.83;;
74371;SDS011;62885;51.374;6.170;2023-05-20T14:38:41;8.27;;;2.83;;
74371;SDS011;62885;51.374;6.170;2023-05-20T14:41:07;5.03;;;2.67;;
74371;SDS011;62885;51.374;6.170;2023-05-20T14:43:32;3.88;;;2.33;;
74371;SDS011;62885;51.374;6.170;2023-05-20T14:45:58;4.65;;;2.40;;
74371;SDS011;62885;51.374;6.170;2023-05-20T14:48:23;4.43;;;2.45;;
74371;SDS011;62885;51.374;6.170;2023-05-20T14:50:49;5.50;;;2.50;;
74371;SDS011;62885;51.374;6.170;2023-05-20T14:53:15;4.35;;;2.50;;
74371;SDS011;62885;51.374;6.170;2023-05-20T14:55:41;6.68;;;2.40;;
74371;SDS011;62885;51.374;6.170;2023-05-20T14:58:06;3.72;;;2.20;;
74371;SDS011;62885;51.374;6.170;2023-05-20T15:00:32;8.57;;;2.42;;